sensor_id;sensor_type;location;lat;lon;timestamp;P1;durP1;ratioP1;P2;durP2;ratioP2
13202;SDS011;6666;51.626;7.530;2023-11-21T00:00:49;16.92;;;8.23;;
13202;SDS011;6666;51.626;7.530;2023-11-21T00:03:17;15.23;;;7.18;;
13202;SDS011;6666;51.626;7.530;2023-11-21T00:05:46;17.40;;;9.02;;
13202;SDS011;6666;51.626;7.530;2023-11-21T00:08:14;16.77;;;9.93;;
13202;SDS011;6666;51.626;7.530;2023-11-21T00:10:42;22.15;;;10.88;;
13202;SDS011;6666;51.626;7.530;2023-11-21T00:13:12;19.25;;;10.40;;
13202;SDS011;6666;51.626;7.530;2023-11-21T00:15:40;18.52;;;10.20;;
13202;SDS011;6666;51.626;7.530;2023-11-21T00:18:08;20.20;;;9.70;;
13202;SDS011;6666;51.626;7.530;2023-11-21T00:20:36;23.48;;;10.30;;
13202;SDS011;6666;51.626;7.530;2023-11-21T00:23:05;19.55;;;9.70;;
13202;SDS011;6666;51.626;7.530;2023-11-21T00:25:33;16.10;;;9.10;;
13202;SDS011;6666;51.626;7.530;2023-11-21T00:28:01;22.25;;;9.40;;
13202;SDS011;6666;51.626;7.530;2023-11-21T00:30:31;18.50;;;9.18;;
13202;SDS011;6666;51.626;7.530;2023-11-21T00:32:59;20.20;;;9.40;;
13202;SDS011;6666;51.626;7.530;2023-11-21T00:35:28;20.43;;;10.10;;
13202;SDS011;6666;51.626;7.530;2023-11-21T00:37:56;15.77;;;9.27;;
13202;SDS011;6666;51.626;7.530;2023-11-21T00:40:24;18.65;;;9.13;;
13202;SDS011;6666;51.626;7.530;2023-11-21T00:42:53;19.50;;;9.30;;
13202;SDS011;6666;51.626;7.530;2023-11-21T00:45:23;18.50;;;9.30;;
13202;SDS011;6666;51.626;7.530;2023-11-21T00:47:53;17.85;;;8.98;;
13202;SDS011;6666;51.626;7.530;2023-11-21T00:50:21;20.75;;;9.00;;
13202;SDS011;6666;51.626;7.530;2023-11-21T00:52:50;17.38;;;8.60;;
13202;SDS011;6666;51.626;7.530;2023-11-21T00:55:19;16.10;;;8.40;;
13202;SDS011;6666;51.626;7.530;2023-11-21T00:57:47;15.55;;;9.00;;
13202;SDS011;6666;51.626;7.530;2023-11-21T01:00:16;18.35;;;8.85;;
13202;SDS011;6666;51.626;7.530;2023-11-21T01:02:45;16.27;;;8.77;;
13202;SDS011;6666;51.626;7.530;2023-11-21T01:05:15;16.75;;;8.77;;
13202;SDS011;6666;51.626;7.530;2023-11-21T01:07:43;19.42;;;8.90;;
13202;SDS011;6666;51.626;7.530;2023-11-21T01:10:11;19.03;;;8.70;;
13202;SDS011;6666;51.626;7.530;2023-11-21T01:12:40;16.30;;;8.25;;
13202;SDS011;6666;51.626;7.530;2023-11-21T01:15:08;21.17;;;10.38;;
13202;SDS011;6666;51.626;7.530;2023-11-21T01:17:38;18.23;;;9.17;;
13202;SDS011;6666;51.626;7.530;2023-11-21T01:20:07;18.02;;;9.18;;
13202;SDS011;6666;51.626;7.530;2023-11-21T01:22:41;15.05;;;8.85;;
13202;SDS011;6666;51.626;7.530;2023-11-21T01:25:10;19.45;;;9.10;;
13202;SDS011;6666;51.626;7.530;2023-11-21T01:27:41;19.42;;;8.82;;
13202;SDS011;6666;51.626;7.530;2023-11-21T01:30:10;15.25;;;8.02;;
13202;SDS011;6666;51.626;7.530;2023-11-21T01:32:38;16.00;;;9.00;;
13202;SDS011;6666;51.626;7.530;2023-11-21T01:35:07;20.45;;;9.70;;
13202;SDS011;6666;51.626;7.530;2023-11-21T01:37:36;18.52;;;9.30;;
13202;SDS011;6666;51.626;7.530;2023-11-21T01:40:07;17.42;;;9.13;;
13202;SDS011;6666;51.626;7.530;2023-11-21T01:42:40;14.63;;;9.10;;
13202;SDS011;6666;51.626;7.530;2023-11-21T01:45:10;18.00;;;9.50;;
13202;SDS011;6666;51.626;7.530;2023-11-21T01:47:39;17.73;;;9.30;;
13202;SDS011;6666;51.626;7.530;2023-11-21T01:50:09;19.75;;;9.98;;
13202;SDS011;6666;51.626;7.530;2023-11-21T01:52:43;14.90;;;9.70;;
13202;SDS011;6666;51.626;7.530;2023-11-21T01:55:14;19.85;;;9.20;;
13202;SDS011;6666;51.626;7.530;2023-11-21T01:57:54;14.95;;;9.77;;
13202;SDS011;6666;51.626;7.530;2023-11-21T02:00:23;18.33;;;10.65;;
13202;SDS011;6666;51.626;7.530;2023-11-21T02:02:55;16.52;;;9.85;;
13202;SDS011;6666;51.626;7.530;2023-11-21T02:05:24;17.05;;;10.43;;
13202;SDS011;6666;51.626;7.530;2023-11-21T02:07:53;21.73;;;9.57;;
13202;SDS011;6666;51.626;7.530;2023-11-21T02:10:22;16.90;;;9.57;;
13202;SDS011;6666;51.626;7.530;2023-11-21T02:12:51;19.00;;;9.20;;
13202;SDS011;6666;51.626;7.530;2023-11-21T02:15:20;18.58;;;9.38;;
13202;SDS011;6666;51.626;7.530;2023-11-21T02:17:53;17.70;;;9.70;;
13202;SDS011;6666;51.626;7.530;2023-11-21T02:20:22;16.95;;;9.90;;
13202;SDS011;6666;51.626;7.530;2023-11-21T02:22:54;17.42;;;9.60;;
13202;SDS011;6666;51.626;7.530;2023-11-21T02:25:26;17.63;;;9.32;;
13202;SDS011;6666;51.626;7.530;2023-11-21T02:27:56;19.20;;;9.60;;
13202;SDS011;6666;51.626;7.530;2023-11-21T02:30:25;20.65;;;9.63;;
13202;SDS011;6666;51.626;7.530;2023-11-21T02:32:54;18.75;;;10.10;;
13202;SDS011;6666;51.626;7.530;2023-11-21T02:35:24;15.45;;;9.65;;
13202;SDS011;6666;51.626;7.530;2023-11-21T02:37:54;19.25;;;9.90;;
13202;SDS011;6666;51.626;7.530;2023-11-21T02:40:23;19.23;;;9.93;;
13202;SDS011;6666;51.626;7.530;2023-11-21T02:42:53;16.60;;;9.85;;
13202;SDS011;6666;51.626;7.530;2023-11-21T02:45:22;21.02;;;9.90;;
13202;SDS011;6666;51.626;7.530;2023-11-21T02:47:51;17.97;;;9.30;;
13202;SDS011;6666;51.626;7.530;2023-11-21T02:50:24;15.52;;;9.15;;
13202;SDS011;6666;51.626;7.530;2023-11-21T02:52:52;16.00;;;9.10;;
13202;SDS011;6666;51.626;7.530;2023-11-21T02:55:22;19.58;;;9.60;;
13202;SDS011;6666;51.626;7.530;2023-11-21T02:57:52;19.85;;;9.30;;
13202;SDS011;6666;51.626;7.530;2023-11-21T03:00:22;19.60;;;9.32;;
13202;SDS011;6666;51.626;7.530;2023-11-21T03:02:53;22.08;;;9.50;;
13202;SDS011;6666;51.626;7.530;2023-11-21T03:05:22;19.42;;;9.20;;
13202;SDS011;6666;51.626;7.530;2023-11-21T03:07:50;17.63;;;9.55;;
13202;SDS011;6666;51.626;7.530;2023-11-21T03:10:19;15.75;;;9.90;;
13202;SDS011;6666;51.626;7.530;2023-11-21T03:12:49;21.08;;;9.95;;
13202;SDS011;6666;51.626;7.530;2023-11-21T03:15:18;18.80;;;10.00;;
13202;SDS011;6666;51.626;7.530;2023-11-21T03:17:46;16.40;;;9.70;;
13202;SDS011;6666;51.626;7.530;2023-11-21T03:20:15;21.40;;;9.90;;
13202;SDS011;6666;51.626;7.530;2023-11-21T03:22:43;17.65;;;9.65;;
13202;SDS011;6666;51.626;7.530;2023-11-21T03:25:12;18.75;;;9.00;;
13202;SDS011;6666;51.626;7.530;2023-11-21T03:27:41;18.98;;;9.57;;
13202;SDS011;6666;51.626;7.530;2023-11-21T03:30:12;19.30;;;9.43;;
13202;SDS011;6666;51.626;7.530;2023-11-21T03:32:41;20.45;;;10.27;;
13202;SDS011;6666;51.626;7.530;2023-11-21T03:35:09;18.48;;;9.30;;
13202;SDS011;6666;51.626;7.530;2023-11-21T03:37:37;19.50;;;9.68;;
13202;SDS011;6666;51.626;7.530;2023-11-21T03:40:08;17.95;;;10.18;;
13202;SDS011;6666;51.626;7.530;2023-11-21T03:42:39;15.13;;;9.10;;
13202;SDS011;6666;51.626;7.530;2023-11-21T03:45:07;16.53;;;9.17;;
13202;SDS011;6666;51.626;7.530;2023-11-21T03:47:41;15.23;;;9.05;;
13202;SDS011;6666;51.626;7.530;2023-11-21T03:50:10;18.17;;;9.40;;
13202;SDS011;6666;51.626;7.530;2023-11-21T03:52:38;18.40;;;9.90;;
13202;SDS011;6666;51.626;7.530;2023-11-21T03:55:06;17.50;;;9.60;;
13202;SDS011;6666;51.626;7.530;2023-11-21T03:57:36;15.07;;;9.30;;
13202;SDS011;6666;51.626;7.530;2023-11-21T04:00:05;15.63;;;9.60;;
13202;SDS011;6666;51.626;7.530;2023-11-21T04:02:40;24.75;;;9.75;;
13202;SDS011;6666;51.626;7.530;2023-11-21T04:05:08;15.60;;;9.73;;
13202;SDS011;6666;51.626;7.530;2023-11-21T04:07:37;15.30;;;9.40;;
13202;SDS011;6666;51.626;7.530;2023-11-21T04:10:06;20.42;;;9.98;;
13202;SDS011;6666;51.626;7.530;2023-11-21T04:12:36;19.80;;;9.40;;
13202;SDS011;6666;51.626;7.530;2023-11-21T04:15:04;16.70;;;10.35;;
13202;SDS011;6666;51.626;7.530;2023-11-21T04:17:35;17.80;;;9.40;;
13202;SDS011;6666;51.626;7.530;2023-11-21T04:20:06;18.40;;;9.68;;
13202;SDS011;6666;51.626;7.530;2023-11-21T04:22:36;20.55;;;10.05;;
13202;SDS011;6666;51.626;7.530;2023-11-21T04:25:08;18.65;;;9.50;;
13202;SDS011;6666;51.626;7.530;2023-11-21T04:27:38;16.02;;;9.10;;
13202;SDS011;6666;51.626;7.530;2023-11-21T04:30:07;19.08;;;10.40;;
13202;SDS011;6666;51.626;7.530;2023-11-21T04:32:36;22.23;;;10.40;;
13202;SDS011;6666;51.626;7.530;2023-11-21T04:35:07;20.85;;;10.05;;
13202;SDS011;6666;51.626;7.530;2023-11-21T04:37:36;20.00;;;9.65;;
13202;SDS011;6666;51.626;7.530;2023-11-21T04:40:05;18.40;;;9.88;;
13202;SDS011;6666;51.626;7.530;2023-11-21T04:42:34;22.47;;;10.00;;
13202;SDS011;6666;51.626;7.530;2023-11-21T04:45:03;18.20;;;10.82;;
13202;SDS011;6666;51.626;7.530;2023-11-21T04:47:35;16.55;;;10.32;;
13202;SDS011;6666;51.626;7.530;2023-11-21T04:50:04;22.75;;;10.73;;
13202;SDS011;6666;51.626;7.530;2023-11-21T04:52:35;21.25;;;10.32;;
13202;SDS011;6666;51.626;7.530;2023-11-21T04:55:03;22.08;;;10.77;;
13202;SDS011;6666;51.626;7.530;2023-11-21T04:57:33;18.63;;;9.63;;
13202;SDS011;6666;51.626;7.530;2023-11-21T05:00:01;20.05;;;9.50;;
13202;SDS011;6666;51.626;7.530;2023-11-21T05:02:32;20.55;;;9.77;;
13202;SDS011;6666;51.626;7.530;2023-11-21T05:05:02;18.23;;;9.20;;
13202;SDS011;6666;51.626;7.530;2023-11-21T05:07:32;19.27;;;9.95;;
13202;SDS011;6666;51.626;7.530;2023-11-21T05:10:03;21.05;;;10.40;;
13202;SDS011;6666;51.626;7.530;2023-11-21T05:12:35;15.73;;;8.70;;
13202;SDS011;6666;51.626;7.530;2023-11-21T05:15:04;20.30;;;10.30;;
13202;SDS011;6666;51.626;7.530;2023-11-21T05:17:36;21.80;;;10.20;;
13202;SDS011;6666;51.626;7.530;2023-11-21T05:20:06;17.03;;;9.80;;
13202;SDS011;6666;51.626;7.530;2023-11-21T05:22:37;26.48;;;10.90;;
13202;SDS011;6666;51.626;7.530;2023-11-21T05:25:06;18.53;;;9.77;;
13202;SDS011;6666;51.626;7.530;2023-11-21T05:27:35;17.15;;;9.77;;
13202;SDS011;6666;51.626;7.530;2023-11-21T05:30:04;13.27;;;9.38;;
13202;SDS011;6666;51.626;7.530;2023-11-21T05:32:35;18.55;;;10.18;;
13202;SDS011;6666;51.626;7.530;2023-11-21T05:35:04;20.33;;;10.63;;
13202;SDS011;6666;51.626;7.530;2023-11-21T05:37:35;16.20;;;9.60;;
13202;SDS011;6666;51.626;7.530;2023-11-21T05:40:06;21.80;;;10.53;;
13202;SDS011;6666;51.626;7.530;2023-11-21T05:42:36;15.68;;;10.13;;
13202;SDS011;6666;51.626;7.530;2023-11-21T05:45:05;20.08;;;10.07;;
13202;SDS011;6666;51.626;7.530;2023-11-21T05:47:36;22.53;;;10.30;;
13202;SDS011;6666;51.626;7.530;2023-11-21T05:50:07;20.25;;;9.88;;
13202;SDS011;6666;51.626;7.530;2023-11-21T05:52:42;15.40;;;9.35;;
13202;SDS011;6666;51.626;7.530;2023-11-21T05:55:12;17.58;;;9.15;;
13202;SDS011;6666;51.626;7.530;2023-11-21T05:57:41;25.50;;;10.32;;
13202;SDS011;6666;51.626;7.530;2023-11-21T06:00:11;16.15;;;9.73;;
13202;SDS011;6666;51.626;7.530;2023-11-21T06:02:46;15.52;;;9.48;;
13202;SDS011;6666;51.626;7.530;2023-11-21T06:05:17;17.60;;;9.65;;
13202;SDS011;6666;51.626;7.530;2023-11-21T06:07:48;20.23;;;9.98;;
13202;SDS011;6666;51.626;7.530;2023-11-21T06:10:16;16.08;;;9.55;;
13202;SDS011;6666;51.626;7.530;2023-11-21T06:12:46;19.15;;;10.00;;
13202;SDS011;6666;51.626;7.530;2023-11-21T06:15:15;16.77;;;9.80;;
13202;SDS011;6666;51.626;7.530;2023-11-21T06:17:45;18.88;;;9.52;;
13202;SDS011;6666;51.626;7.530;2023-11-21T06:20:18;21.67;;;9.37;;
13202;SDS011;6666;51.626;7.530;2023-11-21T06:22:48;16.80;;;9.23;;
13202;SDS011;6666;51.626;7.530;2023-11-21T06:25:18;14.00;;;9.93;;
13202;SDS011;6666;51.626;7.530;2023-11-21T06:27:46;16.92;;;9.82;;
13202;SDS011;6666;51.626;7.530;2023-11-21T06:30:15;15.33;;;9.23;;
13202;SDS011;6666;51.626;7.530;2023-11-21T06:32:46;16.45;;;9.05;;
13202;SDS011;6666;51.626;7.530;2023-11-21T06:35:14;22.83;;;10.20;;
13202;SDS011;6666;51.626;7.530;2023-11-21T06:37:43;18.33;;;10.27;;
13202;SDS011;6666;51.626;7.530;2023-11-21T06:40:17;20.20;;;10.25;;
13202;SDS011;6666;51.626;7.530;2023-11-21T06:42:47;18.08;;;10.50;;
13202;SDS011;6666;51.626;7.530;2023-11-21T06:45:16;17.42;;;10.43;;
13202;SDS011;6666;51.626;7.530;2023-11-21T06:47:46;21.15;;;12.48;;
13202;SDS011;6666;51.626;7.530;2023-11-21T06:50:14;24.23;;;11.90;;
13202;SDS011;6666;51.626;7.530;2023-11-21T06:52:42;18.38;;;10.63;;
13202;SDS011;6666;51.626;7.530;2023-11-21T06:55:11;24.38;;;11.85;;
13202;SDS011;6666;51.626;7.530;2023-11-21T06:57:41;24.42;;;11.30;;
13202;SDS011;6666;51.626;7.530;2023-11-21T07:00:09;22.80;;;10.38;;
13202;SDS011;6666;51.626;7.530;2023-11-21T07:02:38;18.75;;;11.73;;
13202;SDS011;6666;51.626;7.530;2023-11-21T07:05:07;23.42;;;11.80;;
13202;SDS011;6666;51.626;7.530;2023-11-21T07:07:35;25.60;;;11.93;;
13202;SDS011;6666;51.626;7.530;2023-11-21T07:10:04;20.00;;;12.10;;
13202;SDS011;6666;51.626;7.530;2023-11-21T07:12:33;23.57;;;12.77;;
13202;SDS011;6666;51.626;7.530;2023-11-21T07:15:03;20.90;;;12.43;;
13202;SDS011;6666;51.626;7.530;2023-11-21T07:17:36;22.17;;;11.30;;
13202;SDS011;6666;51.626;7.530;2023-11-21T07:20:07;24.20;;;12.32;;
13202;SDS011;6666;51.626;7.530;2023-11-21T07:22:37;21.50;;;11.90;;
13202;SDS011;6666;51.626;7.530;2023-11-21T07:25:06;25.48;;;12.93;;
13202;SDS011;6666;51.626;7.530;2023-11-21T07:27:36;22.02;;;11.77;;
13202;SDS011;6666;51.626;7.530;2023-11-21T07:30:06;20.05;;;12.55;;
13202;SDS011;6666;51.626;7.530;2023-11-21T07:32:36;22.33;;;12.37;;
13202;SDS011;6666;51.626;7.530;2023-11-21T07:35:06;20.85;;;12.30;;
13202;SDS011;6666;51.626;7.530;2023-11-21T07:37:35;21.73;;;12.43;;
13202;SDS011;6666;51.626;7.530;2023-11-21T07:40:04;21.73;;;12.30;;
13202;SDS011;6666;51.626;7.530;2023-11-21T07:42:35;21.48;;;12.48;;
13202;SDS011;6666;51.626;7.530;2023-11-21T07:45:06;23.35;;;12.52;;
13202;SDS011;6666;51.626;7.530;2023-11-21T07:47:35;23.40;;;13.27;;
13202;SDS011;6666;51.626;7.530;2023-11-21T07:50:06;23.08;;;12.60;;
13202;SDS011;6666;51.626;7.530;2023-11-21T07:52:35;21.17;;;12.90;;
13202;SDS011;6666;51.626;7.530;2023-11-21T07:55:04;23.40;;;12.80;;
13202;SDS011;6666;51.626;7.530;2023-11-21T07:57:34;24.40;;;12.95;;
13202;SDS011;6666;51.626;7.530;2023-11-21T08:00:02;25.27;;;13.00;;
13202;SDS011;6666;51.626;7.530;2023-11-21T08:02:39;25.33;;;12.83;;
13202;SDS011;6666;51.626;7.530;2023-11-21T08:05:08;25.08;;;12.77;;
13202;SDS011;6666;51.626;7.530;2023-11-21T08:07:50;23.83;;;12.90;;
13202;SDS011;6666;51.626;7.530;2023-11-21T08:10:18;23.42;;;13.43;;
13202;SDS011;6666;51.626;7.530;2023-11-21T08:12:48;24.25;;;13.10;;
13202;SDS011;6666;51.626;7.530;2023-11-21T08:15:17;22.80;;;13.05;;
13202;SDS011;6666;51.626;7.530;2023-11-21T08:17:47;23.13;;;13.65;;
13202;SDS011;6666;51.626;7.530;2023-11-21T08:20:15;30.42;;;14.35;;
13202;SDS011;6666;51.626;7.530;2023-11-21T08:22:44;26.10;;;14.75;;
13202;SDS011;6666;51.626;7.530;2023-11-21T08:25:14;30.88;;;14.98;;
13202;SDS011;6666;51.626;7.530;2023-11-21T08:27:43;29.90;;;16.10;;
13202;SDS011;6666;51.626;7.530;2023-11-21T08:30:12;29.50;;;15.40;;
13202;SDS011;6666;51.626;7.530;2023-11-21T08:32:43;32.83;;;15.93;;
13202;SDS011;6666;51.626;7.530;2023-11-21T08:35:13;32.73;;;16.30;;
13202;SDS011;6666;51.626;7.530;2023-11-21T08:37:42;34.53;;;16.80;;
13202;SDS011;6666;51.626;7.530;2023-11-21T08:40:27;34.17;;;16.50;;
13202;SDS011;6666;51.626;7.530;2023-11-21T08:42:55;34.60;;;16.10;;
13202;SDS011;6666;51.626;7.530;2023-11-21T08:45:25;33.85;;;16.60;;
13202;SDS011;6666;51.626;7.530;2023-11-21T08:47:53;41.58;;;18.58;;
13202;SDS011;6666;51.626;7.530;2023-11-21T08:50:22;38.92;;;18.42;;
13202;SDS011;6666;51.626;7.530;2023-11-21T08:52:50;41.97;;;18.77;;
13202;SDS011;6666;51.626;7.530;2023-11-21T08:55:18;42.00;;;18.85;;
13202;SDS011;6666;51.626;7.530;2023-11-21T08:57:48;42.42;;;20.30;;
13202;SDS011;6666;51.626;7.530;2023-11-21T09:00:17;45.38;;;19.20;;
13202;SDS011;6666;51.626;7.530;2023-11-21T09:02:45;45.70;;;21.60;;
13202;SDS011;6666;51.626;7.530;2023-11-21T09:05:14;49.45;;;20.17;;
13202;SDS011;6666;51.626;7.530;2023-11-21T09:07:43;47.00;;;20.65;;
13202;SDS011;6666;51.626;7.530;2023-11-21T09:10:12;47.45;;;20.42;;
13202;SDS011;6666;51.626;7.530;2023-11-21T09:12:41;44.70;;;20.05;;
13202;SDS011;6666;51.626;7.530;2023-11-21T09:15:11;41.47;;;18.95;;
13202;SDS011;6666;51.626;7.530;2023-11-21T09:17:41;38.75;;;19.60;;
13202;SDS011;6666;51.626;7.530;2023-11-21T09:20:11;40.03;;;19.60;;
13202;SDS011;6666;51.626;7.530;2023-11-21T09:22:41;42.13;;;19.95;;
13202;SDS011;6666;51.626;7.530;2023-11-21T09:25:11;43.65;;;20.10;;
13202;SDS011;6666;51.626;7.530;2023-11-21T09:27:39;41.73;;;19.10;;
13202;SDS011;6666;51.626;7.530;2023-11-21T09:30:08;40.53;;;19.13;;
13202;SDS011;6666;51.626;7.530;2023-11-21T09:32:39;41.65;;;19.55;;
13202;SDS011;6666;51.626;7.530;2023-11-21T09:35:10;42.88;;;20.52;;
13202;SDS011;6666;51.626;7.530;2023-11-21T09:37:40;39.67;;;19.20;;
13202;SDS011;6666;51.626;7.530;2023-11-21T09:40:11;44.17;;;20.40;;
13202;SDS011;6666;51.626;7.530;2023-11-21T09:42:43;44.50;;;20.77;;
13202;SDS011;6666;51.626;7.530;2023-11-21T09:45:21;44.00;;;19.47;;
13202;SDS011;6666;51.626;7.530;2023-11-21T09:47:54;44.67;;;20.38;;
13202;SDS011;6666;51.626;7.530;2023-11-21T09:50:24;43.77;;;20.07;;
13202;SDS011;6666;51.626;7.530;2023-11-21T09:53:03;45.25;;;19.98;;
13202;SDS011;6666;51.626;7.530;2023-11-21T09:55:42;44.17;;;19.73;;
13202;SDS011;6666;51.626;7.530;2023-11-21T09:58:11;42.60;;;20.80;;
13202;SDS011;6666;51.626;7.530;2023-11-21T10:00:41;44.90;;;19.95;;
13202;SDS011;6666;51.626;7.530;2023-11-21T10:03:11;44.22;;;20.67;;
13202;SDS011;6666;51.626;7.530;2023-11-21T10:05:41;45.22;;;21.83;;
13202;SDS011;6666;51.626;7.530;2023-11-21T10:08:11;42.78;;;19.92;;
13202;SDS011;6666;51.626;7.530;2023-11-21T10:10:42;45.22;;;20.60;;
13202;SDS011;6666;51.626;7.530;2023-11-21T10:13:12;43.28;;;19.63;;
13202;SDS011;6666;51.626;7.530;2023-11-21T10:15:43;39.10;;;19.75;;
13202;SDS011;6666;51.626;7.530;2023-11-21T10:18:17;41.20;;;20.00;;
13202;SDS011;6666;51.626;7.530;2023-11-21T10:20:46;40.67;;;18.97;;
13202;SDS011;6666;51.626;7.530;2023-11-21T10:23:19;42.65;;;19.40;;
13202;SDS011;6666;51.626;7.530;2023-11-21T10:25:49;41.80;;;19.98;;
13202;SDS011;6666;51.626;7.530;2023-11-21T10:28:18;43.40;;;19.48;;
13202;SDS011;6666;51.626;7.530;2023-11-21T10:30:48;41.08;;;18.95;;
13202;SDS011;6666;51.626;7.530;2023-11-21T10:33:18;37.30;;;19.15;;
13202;SDS011;6666;51.626;7.530;2023-11-21T10:35:55;42.13;;;19.67;;
13202;SDS011;6666;51.626;7.530;2023-11-21T10:38:23;40.70;;;18.52;;
13202;SDS011;6666;51.626;7.530;2023-11-21T10:40:53;35.10;;;18.13;;
13202;SDS011;6666;51.626;7.530;2023-11-21T10:43:24;37.65;;;18.42;;
13202;SDS011;6666;51.626;7.530;2023-11-21T10:45:54;39.63;;;18.70;;
13202;SDS011;6666;51.626;7.530;2023-11-21T10:48:28;38.53;;;17.98;;
13202;SDS011;6666;51.626;7.530;2023-11-21T10:50:56;40.70;;;19.05;;
13202;SDS011;6666;51.626;7.530;2023-11-21T10:53:27;34.22;;;17.65;;
13202;SDS011;6666;51.626;7.530;2023-11-21T10:56:01;31.20;;;16.25;;
13202;SDS011;6666;51.626;7.530;2023-11-21T10:58:32;30.98;;;16.80;;
13202;SDS011;6666;51.626;7.530;2023-11-21T11:01:03;35.30;;;19.13;;
13202;SDS011;6666;51.626;7.530;2023-11-21T11:03:35;33.72;;;17.58;;
13202;SDS011;6666;51.626;7.530;2023-11-21T11:06:04;40.17;;;17.05;;
13202;SDS011;6666;51.626;7.530;2023-11-21T11:08:38;30.52;;;15.55;;
13202;SDS011;6666;51.626;7.530;2023-11-21T11:11:07;28.42;;;16.10;;
13202;SDS011;6666;51.626;7.530;2023-11-21T11:13:37;27.23;;;14.80;;
13202;SDS011;6666;51.626;7.530;2023-11-21T11:16:06;31.90;;;16.23;;
13202;SDS011;6666;51.626;7.530;2023-11-21T11:18:38;28.27;;;15.02;;
13202;SDS011;6666;51.626;7.530;2023-11-21T11:21:08;26.88;;;14.82;;
13202;SDS011;6666;51.626;7.530;2023-11-21T11:23:46;26.83;;;15.60;;
13202;SDS011;6666;51.626;7.530;2023-11-21T11:26:32;30.20;;;16.00;;
13202;SDS011;6666;51.626;7.530;2023-11-21T11:29:11;26.15;;;14.15;;
13202;SDS011;6666;51.626;7.530;2023-11-21T11:31:49;24.73;;;13.15;;
13202;SDS011;6666;51.626;7.530;2023-11-21T11:34:26;25.23;;;13.00;;
13202;SDS011;6666;51.626;7.530;2023-11-21T11:37:00;18.30;;;11.80;;
13202;SDS011;6666;51.626;7.530;2023-11-21T11:39:30;17.17;;;10.95;;
13202;SDS011;6666;51.626;7.530;2023-11-21T11:42:02;21.90;;;10.68;;
13202;SDS011;6666;51.626;7.530;2023-11-21T11:44:48;18.70;;;10.50;;
13202;SDS011;6666;51.626;7.530;2023-11-21T11:47:22;17.67;;;10.60;;
13202;SDS011;6666;51.626;7.530;2023-11-21T11:49:56;22.17;;;10.70;;
13202;SDS011;6666;51.626;7.530;2023-11-21T11:52:32;17.90;;;10.30;;
13202;SDS011;6666;51.626;7.530;2023-11-21T11:55:06;15.95;;;9.63;;
13202;SDS011;6666;51.626;7.530;2023-11-21T11:57:37;18.95;;;10.57;;
13202;SDS011;6666;51.626;7.530;2023-11-21T12:00:10;17.40;;;10.32;;
13202;SDS011;6666;51.626;7.530;2023-11-21T12:02:47;14.40;;;9.45;;
13202;SDS011;6666;51.626;7.530;2023-11-21T12:05:18;17.55;;;10.05;;
13202;SDS011;6666;51.626;7.530;2023-11-21T12:07:48;19.30;;;10.35;;
13202;SDS011;6666;51.626;7.530;2023-11-21T12:10:20;18.73;;;10.57;;
13202;SDS011;6666;51.626;7.530;2023-11-21T12:12:51;18.02;;;10.93;;
13202;SDS011;6666;51.626;7.530;2023-11-21T12:15:21;26.75;;;14.18;;
13202;SDS011;6666;51.626;7.530;2023-11-21T12:17:50;24.67;;;13.88;;
13202;SDS011;6666;51.626;7.530;2023-11-21T12:20:22;27.60;;;15.52;;
13202;SDS011;6666;51.626;7.530;2023-11-21T12:22:52;16.95;;;9.60;;
13202;SDS011;6666;51.626;7.530;2023-11-21T12:25:21;16.08;;;8.77;;
13202;SDS011;6666;51.626;7.530;2023-11-21T12:27:51;14.83;;;8.90;;
13202;SDS011;6666;51.626;7.530;2023-11-21T12:30:21;14.60;;;9.02;;
13202;SDS011;6666;51.626;7.530;2023-11-21T12:32:54;15.20;;;8.85;;
13202;SDS011;6666;51.626;7.530;2023-11-21T12:35:25;16.23;;;9.60;;
13202;SDS011;6666;51.626;7.530;2023-11-21T12:37:56;16.07;;;8.97;;
13202;SDS011;6666;51.626;7.530;2023-11-21T12:40:25;16.20;;;10.13;;
13202;SDS011;6666;51.626;7.530;2023-11-21T12:42:55;14.03;;;9.00;;
13202;SDS011;6666;51.626;7.530;2023-11-21T12:45:25;16.05;;;9.70;;
13202;SDS011;6666;51.626;7.530;2023-11-21T12:47:55;15.27;;;9.50;;
13202;SDS011;6666;51.626;7.530;2023-11-21T12:50:28;18.02;;;10.10;;
13202;SDS011;6666;51.626;7.530;2023-11-21T12:53:00;17.83;;;10.20;;
13202;SDS011;6666;51.626;7.530;2023-11-21T12:55:31;14.52;;;9.65;;
13202;SDS011;6666;51.626;7.530;2023-11-21T12:58:05;19.15;;;9.93;;
13202;SDS011;6666;51.626;7.530;2023-11-21T13:00:38;15.65;;;9.70;;
13202;SDS011;6666;51.626;7.530;2023-11-21T13:03:10;17.15;;;8.95;;
13202;SDS011;6666;51.626;7.530;2023-11-21T13:05:45;16.42;;;9.20;;
13202;SDS011;6666;51.626;7.530;2023-11-21T13:08:18;13.52;;;8.27;;
13202;SDS011;6666;51.626;7.530;2023-11-21T13:10:49;17.52;;;8.70;;
13202;SDS011;6666;51.626;7.530;2023-11-21T13:13:20;16.80;;;9.15;;
13202;SDS011;6666;51.626;7.530;2023-11-21T13:15:51;13.25;;;7.95;;
13202;SDS011;6666;51.626;7.530;2023-11-21T13:18:23;17.02;;;8.80;;
13202;SDS011;6666;51.626;7.530;2023-11-21T13:20:54;15.13;;;8.40;;
13202;SDS011;6666;51.626;7.530;2023-11-21T13:23:24;14.75;;;7.97;;
13202;SDS011;6666;51.626;7.530;2023-11-21T13:25:53;13.40;;;7.82;;
13202;SDS011;6666;51.626;7.530;2023-11-21T13:28:32;17.00;;;8.70;;
13202;SDS011;6666;51.626;7.530;2023-11-21T13:31:01;13.77;;;7.95;;
13202;SDS011;6666;51.626;7.530;2023-11-21T13:33:36;15.50;;;8.80;;
13202;SDS011;6666;51.626;7.530;2023-11-21T13:36:07;15.35;;;8.65;;
13202;SDS011;6666;51.626;7.530;2023-11-21T13:38:37;16.60;;;8.47;;
13202;SDS011;6666;51.626;7.530;2023-11-21T13:41:09;14.00;;;8.35;;
13202;SDS011;6666;51.626;7.530;2023-11-21T13:43:40;18.40;;;8.40;;
13202;SDS011;6666;51.626;7.530;2023-11-21T13:46:10;14.90;;;7.90;;
13202;SDS011;6666;51.626;7.530;2023-11-21T13:48:43;13.98;;;7.75;;
13202;SDS011;6666;51.626;7.530;2023-11-21T13:51:19;10.35;;;6.60;;
13202;SDS011;6666;51.626;7.530;2023-11-21T13:53:56;10.95;;;6.30;;
13202;SDS011;6666;51.626;7.530;2023-11-21T13:56:24;12.90;;;6.80;;
13202;SDS011;6666;51.626;7.530;2023-11-21T13:58:55;9.95;;;6.32;;
13202;SDS011;6666;51.626;7.530;2023-11-21T14:01:25;9.90;;;6.00;;
13202;SDS011;6666;51.626;7.530;2023-11-21T14:04:14;9.10;;;5.72;;
13202;SDS011;6666;51.626;7.530;2023-11-21T14:06:48;8.70;;;5.30;;
13202;SDS011;6666;51.626;7.530;2023-11-21T14:09:21;9.98;;;5.20;;
13202;SDS011;6666;51.626;7.530;2023-11-21T14:11:52;7.65;;;5.05;;
13202;SDS011;6666;51.626;7.530;2023-11-21T14:14:22;7.80;;;5.15;;
13202;SDS011;6666;51.626;7.530;2023-11-21T14:16:52;8.05;;;5.85;;
13202;SDS011;6666;51.626;7.530;2023-11-21T14:19:22;6.25;;;5.05;;
13202;SDS011;6666;51.626;7.530;2023-11-21T14:21:55;8.13;;;5.40;;
13202;SDS011;6666;51.626;7.530;2023-11-21T14:24:23;7.00;;;5.30;;
13202;SDS011;6666;51.626;7.530;2023-11-21T14:26:51;7.93;;;5.53;;
13202;SDS011;6666;51.626;7.530;2023-11-21T14:29:21;6.63;;;5.18;;
13202;SDS011;6666;51.626;7.530;2023-11-21T14:31:50;6.53;;;4.97;;
13202;SDS011;6666;51.626;7.530;2023-11-21T14:34:22;6.47;;;4.57;;
13202;SDS011;6666;51.626;7.530;2023-11-21T14:36:53;6.20;;;4.60;;
13202;SDS011;6666;51.626;7.530;2023-11-21T14:39:23;5.20;;;4.18;;
13202;SDS011;6666;51.626;7.530;2023-11-21T14:41:54;6.23;;;4.83;;
13202;SDS011;6666;51.626;7.530;2023-11-21T14:44:24;5.80;;;4.60;;
13202;SDS011;6666;51.626;7.530;2023-11-21T14:46:55;6.28;;;5.03;;
13202;SDS011;6666;51.626;7.530;2023-11-21T14:49:25;8.40;;;6.15;;
13202;SDS011;6666;51.626;7.530;2023-11-21T14:51:58;9.45;;;7.00;;
13202;SDS011;6666;51.626;7.530;2023-11-21T14:54:27;10.13;;;7.68;;
13202;SDS011;6666;51.626;7.530;2023-11-21T14:57:08;12.50;;;7.90;;
13202;SDS011;6666;51.626;7.530;2023-11-21T14:59:42;12.20;;;8.73;;
13202;SDS011;6666;51.626;7.530;2023-11-21T15:02:13;14.18;;;9.48;;